sensor_id;sensor_type;location;lat;lon;timestamp;P1;durP1;ratioP1;P2;durP2;ratioP2
40611;SDS011;26317;44.894;20.286;2023-05-10T00:01:23;11.93;;;10.77;;
40611;SDS011;26317;44.894;20.286;2023-05-10T00:03:53;15.33;;;11.17;;
40611;SDS011;26317;44.894;20.286;2023-05-10T00:06:26;14.77;;;10.57;;
40611;SDS011;26317;44.894;20.286;2023-05-10T00:08:57;13.63;;;11.30;;
40611;SDS011;26317;44.894;20.286;2023-05-10T00:11:27;13.45;;;11.00;;
40611;SDS011;26317;44.894;20.286;2023-05-10T00:13:57;13.57;;;10.90;;
40611;SDS011;26317;44.894;20.286;2023-05-10T00:16:33;11.68;;;10.15;;
40611;SDS011;26317;44.894;20.286;2023-05-10T00:19:03;12.33;;;11.00;;
40611;SDS011;26317;44.894;20.286;2023-05-10T00:21:36;16.00;;;12.60;;
40611;SDS011;26317;44.894;20.286;2023-05-10T00:24:06;15.18;;;13.57;;
40611;SDS011;26317;44.894;20.286;2023-05-10T00:26:36;14.60;;;13.10;;
40611;SDS011;26317;44.894;20.286;2023-05-10T00:29:09;17.20;;;15.40;;
40611;SDS011;26317;44.894;20.286;2023-05-10T00:34:09;17.27;;;15.48;;
40611;SDS011;26317;44.894;20.286;2023-05-10T00:36:42;18.00;;;16.20;;
40611;SDS011;26317;44.894;20.286;2023-05-10T00:39:12;17.38;;;15.75;;
40611;SDS011;26317;44.894;20.286;2023-05-10T00:41:43;18.58;;;15.40;;
40611;SDS011;26317;44.894;20.286;2023-05-10T00:44:17;15.98;;;14.27;;
40611;SDS011;26317;44.894;20.286;2023-05-10T00:46:47;16.60;;;14.75;;
40611;SDS011;26317;44.894;20.286;2023-05-10T00:51:51;14.65;;;13.05;;
40611;SDS011;26317;44.894;20.286;2023-05-10T00:54:22;13.93;;;12.48;;
40611;SDS011;26317;44.894;20.286;2023-05-10T00:56:53;13.32;;;11.93;;
40611;SDS011;26317;44.894;20.286;2023-05-10T00:59:24;15.85;;;12.98;;
40611;SDS011;26317;44.894;20.286;2023-05-10T01:01:55;14.13;;;12.65;;
40611;SDS011;26317;44.894;20.286;2023-05-10T01:04:25;12.98;;;11.68;;
40611;SDS011;26317;44.894;20.286;2023-05-10T01:06:59;13.77;;;12.18;;
40611;SDS011;26317;44.894;20.286;2023-05-10T01:09:29;14.55;;;13.05;;
40611;SDS011;26317;44.894;20.286;2023-05-10T01:11:59;13.65;;;12.20;;
40611;SDS011;26317;44.894;20.286;2023-05-10T01:14:33;16.27;;;12.98;;
40611;SDS011;26317;44.894;20.286;2023-05-10T01:17:05;14.18;;;12.50;;
40611;SDS011;26317;44.894;20.286;2023-05-10T01:19:37;14.95;;;13.20;;
40611;SDS011;26317;44.894;20.286;2023-05-10T01:22:26;13.18;;;11.88;;
40611;SDS011;26317;44.894;20.286;2023-05-10T01:28:18;15.35;;;12.65;;
40611;SDS011;26317;44.894;20.286;2023-05-10T01:31:08;16.02;;;11.88;;
40611;SDS011;26317;44.894;20.286;2023-05-10T01:33:55;13.30;;;11.98;;
40611;SDS011;26317;44.894;20.286;2023-05-10T01:36:30;15.25;;;11.13;;
40611;SDS011;26317;44.894;20.286;2023-05-10T01:39:02;14.52;;;10.75;;
40611;SDS011;26317;44.894;20.286;2023-05-10T01:41:44;14.65;;;10.15;;
40611;SDS011;26317;44.894;20.286;2023-05-10T01:44:21;11.00;;;9.85;;
40611;SDS011;26317;44.894;20.286;2023-05-10T01:47:01;11.90;;;9.48;;
40611;SDS011;26317;44.894;20.286;2023-05-10T01:49:39;10.57;;;9.48;;
40611;SDS011;26317;44.894;20.286;2023-05-10T01:52:15;12.90;;;9.52;;
40611;SDS011;26317;44.894;20.286;2023-05-10T01:54:49;10.82;;;9.43;;
40611;SDS011;26317;44.894;20.286;2023-05-10T01:57:24;9.90;;;8.90;;
40611;SDS011;26317;44.894;20.286;2023-05-10T01:59:59;10.88;;;8.93;;
40611;SDS011;26317;44.894;20.286;2023-05-10T02:02:42;9.25;;;8.02;;
40611;SDS011;26317;44.894;20.286;2023-05-10T02:05:18;11.50;;;9.07;;
40611;SDS011;26317;44.894;20.286;2023-05-10T02:07:52;10.85;;;8.80;;
40611;SDS011;26317;44.894;20.286;2023-05-10T02:10:24;11.45;;;8.43;;
40611;SDS011;26317;44.894;20.286;2023-05-10T02:12:55;9.52;;;8.13;;
40611;SDS011;26317;44.894;20.286;2023-05-10T02:15:30;9.95;;;8.40;;
40611;SDS011;26317;44.894;20.286;2023-05-10T02:18:01;11.80;;;7.95;;
40611;SDS011;26317;44.894;20.286;2023-05-10T02:20:37;9.32;;;8.10;;
40611;SDS011;26317;44.894;20.286;2023-05-10T02:23:08;9.25;;;8.25;;
40611;SDS011;26317;44.894;20.286;2023-05-10T02:25:40;9.90;;;8.52;;
40611;SDS011;26317;44.894;20.286;2023-05-10T02:28:13;10.45;;;7.43;;
40611;SDS011;26317;44.894;20.286;2023-05-10T02:30:45;14.30;;;8.07;;
40611;SDS011;26317;44.894;20.286;2023-05-10T02:33:17;9.88;;;7.20;;
40611;SDS011;26317;44.894;20.286;2023-05-10T02:35:52;10.00;;;7.00;;
40611;SDS011;26317;44.894;20.286;2023-05-10T02:38:22;9.90;;;6.63;;
40611;SDS011;26317;44.894;20.286;2023-05-10T02:40:55;9.68;;;7.15;;
40611;SDS011;26317;44.894;20.286;2023-05-10T02:43:26;8.23;;;7.07;;
40611;SDS011;26317;44.894;20.286;2023-05-10T02:46:02;7.75;;;6.85;;
40611;SDS011;26317;44.894;20.286;2023-05-10T02:48:34;8.00;;;7.30;;
40611;SDS011;26317;44.894;20.286;2023-05-10T02:51:07;7.47;;;6.70;;
40611;SDS011;26317;44.894;20.286;2023-05-10T02:53:40;7.68;;;6.72;;
40611;SDS011;26317;44.894;20.286;2023-05-10T02:56:23;7.82;;;6.53;;
40611;SDS011;26317;44.894;20.286;2023-05-10T02:58:58;7.07;;;6.38;;
40611;SDS011;26317;44.894;20.286;2023-05-10T03:01:32;7.63;;;6.10;;
40611;SDS011;26317;44.894;20.286;2023-05-10T03:04:03;9.20;;;6.50;;
40611;SDS011;26317;44.894;20.286;2023-05-10T03:06:36;8.80;;;7.28;;
40611;SDS011;26317;44.894;20.286;2023-05-10T03:09:07;7.95;;;7.05;;
40611;SDS011;26317;44.894;20.286;2023-05-10T03:11:47;8.05;;;6.78;;
40611;SDS011;26317;44.894;20.286;2023-05-10T03:14:30;8.00;;;7.20;;
40611;SDS011;26317;44.894;20.286;2023-05-10T03:17:15;8.98;;;6.63;;
40611;SDS011;26317;44.894;20.286;2023-05-10T03:19:53;8.68;;;7.03;;
40611;SDS011;26317;44.894;20.286;2023-05-10T03:22:28;12.52;;;6.35;;
40611;SDS011;26317;44.894;20.286;2023-05-10T03:25:03;9.27;;;7.43;;
40611;SDS011;26317;44.894;20.286;2023-05-10T03:27:36;10.30;;;6.45;;
40611;SDS011;26317;44.894;20.286;2023-05-10T03:30:10;11.38;;;7.20;;
40611;SDS011;26317;44.894;20.286;2023-05-10T03:32:42;10.90;;;6.25;;
40611;SDS011;26317;44.894;20.286;2023-05-10T03:35:15;8.90;;;7.43;;
40611;SDS011;26317;44.894;20.286;2023-05-10T03:37:48;9.13;;;7.03;;
40611;SDS011;26317;44.894;20.286;2023-05-10T03:40:19;7.93;;;6.95;;
40611;SDS011;26317;44.894;20.286;2023-05-10T03:42:49;9.18;;;6.35;;
40611;SDS011;26317;44.894;20.286;2023-05-10T03:45:20;7.55;;;6.85;;
40611;SDS011;26317;44.894;20.286;2023-05-10T03:47:50;7.50;;;6.38;;
40611;SDS011;26317;44.894;20.286;2023-05-10T03:50:21;11.45;;;6.63;;
40611;SDS011;26317;44.894;20.286;2023-05-10T03:52:55;7.65;;;6.80;;
40611;SDS011;26317;44.894;20.286;2023-05-10T03:55:26;8.45;;;6.65;;
40611;SDS011;26317;44.894;20.286;2023-05-10T03:58:01;11.02;;;6.35;;
40611;SDS011;26317;44.894;20.286;2023-05-10T04:00:33;8.93;;;6.45;;
40611;SDS011;26317;44.894;20.286;2023-05-10T04:03:03;10.95;;;7.20;;
40611;SDS011;26317;44.894;20.286;2023-05-10T04:05:34;8.35;;;6.75;;
40611;SDS011;26317;44.894;20.286;2023-05-10T04:08:08;11.20;;;6.75;;
40611;SDS011;26317;44.894;20.286;2023-05-10T04:10:38;8.25;;;7.30;;
40611;SDS011;26317;44.894;20.286;2023-05-10T04:13:08;11.07;;;7.23;;
40611;SDS011;26317;44.894;20.286;2023-05-10T04:15:39;8.63;;;7.47;;
40611;SDS011;26317;44.894;20.286;2023-05-10T04:18:09;10.23;;;8.30;;
40611;SDS011;26317;44.894;20.286;2023-05-10T04:20:40;8.63;;;7.83;;
40611;SDS011;26317;44.894;20.286;2023-05-10T04:23:13;9.10;;;8.02;;
40611;SDS011;26317;44.894;20.286;2023-05-10T04:25:43;13.38;;;8.00;;
40611;SDS011;26317;44.894;20.286;2023-05-10T04:28:14;9.98;;;7.40;;
40611;SDS011;26317;44.894;20.286;2023-05-10T04:30:44;9.57;;;7.20;;
40611;SDS011;26317;44.894;20.286;2023-05-10T04:33:14;15.18;;;8.25;;
40611;SDS011;26317;44.894;20.286;2023-05-10T04:35:45;8.60;;;7.70;;
40611;SDS011;26317;44.894;20.286;2023-05-10T04:38:17;16.02;;;8.68;;
40611;SDS011;26317;44.894;20.286;2023-05-10T04:40:48;11.35;;;8.13;;
40611;SDS011;26317;44.894;20.286;2023-05-10T04:43:18;9.70;;;8.70;;
40611;SDS011;26317;44.894;20.286;2023-05-10T04:45:48;10.13;;;7.70;;
40611;SDS011;26317;44.894;20.286;2023-05-10T04:48:19;9.37;;;8.37;;
40611;SDS011;26317;44.894;20.286;2023-05-10T04:50:52;10.95;;;7.43;;
40611;SDS011;26317;44.894;20.286;2023-05-10T04:53:25;9.43;;;7.25;;
40611;SDS011;26317;44.894;20.286;2023-05-10T04:55:56;10.93;;;8.20;;
40611;SDS011;26317;44.894;20.286;2023-05-10T04:58:26;9.80;;;8.07;;
40611;SDS011;26317;44.894;20.286;2023-05-10T05:00:56;9.85;;;8.02;;
40611;SDS011;26317;44.894;20.286;2023-05-10T05:03:26;16.85;;;8.85;;
40611;SDS011;26317;44.894;20.286;2023-05-10T05:05:56;11.98;;;8.95;;
40611;SDS011;26317;44.894;20.286;2023-05-10T05:08:29;9.27;;;8.27;;
40611;SDS011;26317;44.894;20.286;2023-05-10T05:10:59;13.85;;;8.45;;
40611;SDS011;26317;44.894;20.286;2023-05-10T05:13:30;10.38;;;8.35;;
40611;SDS011;26317;44.894;20.286;2023-05-10T05:16:00;11.47;;;8.90;;
40611;SDS011;26317;44.894;20.286;2023-05-10T05:18:32;15.15;;;8.45;;
40611;SDS011;26317;44.894;20.286;2023-05-10T05:21:02;8.77;;;7.87;;
40611;SDS011;26317;44.894;20.286;2023-05-10T05:23:37;10.50;;;7.85;;
40611;SDS011;26317;44.894;20.286;2023-05-10T05:26:08;12.88;;;8.40;;
40611;SDS011;26317;44.894;20.286;2023-05-10T05:28:38;15.98;;;8.32;;
40611;SDS011;26317;44.894;20.286;2023-05-10T05:31:08;11.53;;;7.73;;
40611;SDS011;26317;44.894;20.286;2023-05-10T05:33:41;12.90;;;8.52;;
40611;SDS011;26317;44.894;20.286;2023-05-10T05:38:45;8.70;;;7.80;;
40611;SDS011;26317;44.894;20.286;2023-05-10T05:41:15;12.65;;;7.82;;
40611;SDS011;26317;44.894;20.286;2023-05-10T05:43:46;10.52;;;8.23;;
40611;SDS011;26317;44.894;20.286;2023-05-10T05:46:17;8.53;;;7.37;;
40611;SDS011;26317;44.894;20.286;2023-05-10T05:48:47;9.20;;;8.10;;
40611;SDS011;26317;44.894;20.286;2023-05-10T05:51:21;14.95;;;8.32;;
40611;SDS011;26317;44.894;20.286;2023-05-10T05:53:54;8.82;;;7.35;;
40611;SDS011;26317;44.894;20.286;2023-05-10T05:56:25;8.23;;;6.95;;
40611;SDS011;26317;44.894;20.286;2023-05-10T05:58:56;12.10;;;7.50;;
40611;SDS011;26317;44.894;20.286;2023-05-10T06:01:26;8.47;;;7.20;;
40611;SDS011;26317;44.894;20.286;2023-05-10T06:03:56;9.30;;;7.63;;
40611;SDS011;26317;44.894;20.286;2023-05-10T06:06:29;11.90;;;6.90;;
40611;SDS011;26317;44.894;20.286;2023-05-10T06:09:02;9.80;;;8.03;;
40611;SDS011;26317;44.894;20.286;2023-05-10T06:11:33;14.57;;;7.00;;
40611;SDS011;26317;44.894;20.286;2023-05-10T06:14:03;6.82;;;6.15;;
40611;SDS011;26317;44.894;20.286;2023-05-10T06:16:34;12.07;;;6.53;;
40611;SDS011;26317;44.894;20.286;2023-05-10T06:19:06;7.47;;;6.68;;
40611;SDS011;26317;44.894;20.286;2023-05-10T06:21:39;15.20;;;6.85;;
40611;SDS011;26317;44.894;20.286;2023-05-10T06:24:12;8.07;;;5.80;;
40611;SDS011;26317;44.894;20.286;2023-05-10T06:26:43;6.82;;;5.93;;
40611;SDS011;26317;44.894;20.286;2023-05-10T06:29:13;11.45;;;7.00;;
40611;SDS011;26317;44.894;20.286;2023-05-10T06:31:45;7.63;;;6.60;;
40611;SDS011;26317;44.894;20.286;2023-05-10T06:34:18;8.75;;;5.90;;
40611;SDS011;26317;44.894;20.286;2023-05-10T06:36:48;7.67;;;5.73;;
40611;SDS011;26317;44.894;20.286;2023-05-10T06:39:21;7.55;;;5.55;;
40611;SDS011;26317;44.894;20.286;2023-05-10T06:41:51;10.10;;;5.57;;
40611;SDS011;26317;44.894;20.286;2023-05-10T06:44:22;6.93;;;4.80;;
40611;SDS011;26317;44.894;20.286;2023-05-10T06:46:54;11.23;;;6.07;;
40611;SDS011;26317;44.894;20.286;2023-05-10T06:49:25;10.43;;;6.07;;
40611;SDS011;26317;44.894;20.286;2023-05-10T06:51:57;7.78;;;5.50;;
40611;SDS011;26317;44.894;20.286;2023-05-10T06:54:30;6.37;;;5.10;;
40611;SDS011;26317;44.894;20.286;2023-05-10T06:57:00;6.20;;;5.10;;
40611;SDS011;26317;44.894;20.286;2023-05-10T06:59:41;5.10;;;4.65;;
40611;SDS011;26317;44.894;20.286;2023-05-10T07:02:12;9.80;;;6.28;;
40611;SDS011;26317;44.894;20.286;2023-05-10T07:04:42;7.15;;;5.10;;
40611;SDS011;26317;44.894;20.286;2023-05-10T07:07:13;7.38;;;4.68;;
40611;SDS011;26317;44.894;20.286;2023-05-10T07:09:48;5.13;;;4.57;;
40611;SDS011;26317;44.894;20.286;2023-05-10T07:12:19;6.05;;;4.95;;
40611;SDS011;26317;44.894;20.286;2023-05-10T07:14:49;9.15;;;5.32;;
40611;SDS011;26317;44.894;20.286;2023-05-10T07:17:20;9.98;;;4.95;;
40611;SDS011;26317;44.894;20.286;2023-05-10T07:19:50;5.95;;;4.65;;
40611;SDS011;26317;44.894;20.286;2023-05-10T07:22:23;8.65;;;5.90;;
40611;SDS011;26317;44.894;20.286;2023-05-10T07:24:56;10.10;;;5.50;;
40611;SDS011;26317;44.894;20.286;2023-05-10T07:27:26;7.70;;;6.68;;
40611;SDS011;26317;44.894;20.286;2023-05-10T07:29:56;7.93;;;6.33;;
40611;SDS011;26317;44.894;20.286;2023-05-10T07:32:27;10.82;;;6.07;;
40611;SDS011;26317;44.894;20.286;2023-05-10T07:34:57;10.18;;;6.40;;
40611;SDS011;26317;44.894;20.286;2023-05-10T07:37:27;8.18;;;6.18;;
40611;SDS011;26317;44.894;20.286;2023-05-10T07:40:03;8.60;;;6.80;;
40611;SDS011;26317;44.894;20.286;2023-05-10T07:42:35;11.73;;;7.25;;
40611;SDS011;26317;44.894;20.286;2023-05-10T07:45:06;8.93;;;6.25;;
40611;SDS011;26317;44.894;20.286;2023-05-10T07:47:37;10.05;;;6.00;;
40611;SDS011;26317;44.894;20.286;2023-05-10T07:50:09;11.43;;;6.53;;
40611;SDS011;26317;44.894;20.286;2023-05-10T07:52:42;8.35;;;5.90;;
40611;SDS011;26317;44.894;20.286;2023-05-10T07:55:15;7.38;;;6.07;;
40611;SDS011;26317;44.894;20.286;2023-05-10T07:57:47;10.93;;;6.50;;
40611;SDS011;26317;44.894;20.286;2023-05-10T08:00:19;12.90;;;6.43;;
40611;SDS011;26317;44.894;20.286;2023-05-10T08:02:50;9.05;;;6.13;;
40611;SDS011;26317;44.894;20.286;2023-05-10T08:05:21;13.10;;;6.88;;
40611;SDS011;26317;44.894;20.286;2023-05-10T08:07:51;7.53;;;6.13;;
40611;SDS011;26317;44.894;20.286;2023-05-10T08:10:24;6.75;;;6.03;;
40611;SDS011;26317;44.894;20.286;2023-05-10T08:12:55;10.02;;;6.22;;
40611;SDS011;26317;44.894;20.286;2023-05-10T08:15:26;8.35;;;6.00;;
40611;SDS011;26317;44.894;20.286;2023-05-10T08:17:59;14.00;;;6.70;;
40611;SDS011;26317;44.894;20.286;2023-05-10T08:20:29;8.45;;;6.63;;
40611;SDS011;26317;44.894;20.286;2023-05-10T08:22:59;7.38;;;5.90;;
40611;SDS011;26317;44.894;20.286;2023-05-10T08:25:33;9.85;;;6.30;;
40611;SDS011;26317;44.894;20.286;2023-05-10T08:28:03;8.38;;;6.18;;
40611;SDS011;26317;44.894;20.286;2023-05-10T08:30:37;11.65;;;6.50;;
40611;SDS011;26317;44.894;20.286;2023-05-10T08:33:08;8.00;;;6.35;;
40611;SDS011;26317;44.894;20.286;2023-05-10T08:35:39;8.43;;;6.10;;
40611;SDS011;26317;44.894;20.286;2023-05-10T08:38:09;7.28;;;6.07;;
40611;SDS011;26317;44.894;20.286;2023-05-10T08:40:44;7.78;;;5.55;;
40611;SDS011;26317;44.894;20.286;2023-05-10T08:43:15;8.35;;;5.63;;
40611;SDS011;26317;44.894;20.286;2023-05-10T08:45:46;6.10;;;5.57;;
40611;SDS011;26317;44.894;20.286;2023-05-10T08:48:20;7.97;;;5.32;;
40611;SDS011;26317;44.894;20.286;2023-05-10T08:50:53;6.53;;;4.47;;
40611;SDS011;26317;44.894;20.286;2023-05-10T08:53:25;8.52;;;4.50;;
40611;SDS011;26317;44.894;20.286;2023-05-10T08:56:01;3.50;;;3.20;;
40611;SDS011;26317;44.894;20.286;2023-05-10T08:58:32;6.60;;;3.53;;
40611;SDS011;26317;44.894;20.286;2023-05-10T09:01:03;9.43;;;4.57;;
40611;SDS011;26317;44.894;20.286;2023-05-10T09:03:35;6.57;;;4.20;;
40611;SDS011;26317;44.894;20.286;2023-05-10T09:06:11;4.65;;;3.78;;
40611;SDS011;26317;44.894;20.286;2023-05-10T09:08:42;7.75;;;3.70;;
40611;SDS011;26317;44.894;20.286;2023-05-10T09:11:17;4.00;;;3.60;;
40611;SDS011;26317;44.894;20.286;2023-05-10T09:13:47;7.65;;;4.30;;
40611;SDS011;26317;44.894;20.286;2023-05-10T09:16:22;6.68;;;3.90;;
40611;SDS011;26317;44.894;20.286;2023-05-10T09:18:53;6.68;;;3.85;;
40611;SDS011;26317;44.894;20.286;2023-05-10T09:21:23;6.18;;;4.05;;
40611;SDS011;26317;44.894;20.286;2023-05-10T09:23:54;7.25;;;3.80;;
40611;SDS011;26317;44.894;20.286;2023-05-10T09:26:27;5.37;;;3.20;;
40611;SDS011;26317;44.894;20.286;2023-05-10T09:28:59;4.45;;;3.67;;
40611;SDS011;26317;44.894;20.286;2023-05-10T09:34:29;11.77;;;4.32;;
40611;SDS011;26317;44.894;20.286;2023-05-10T09:37:02;7.75;;;3.97;;
40611;SDS011;26317;44.894;20.286;2023-05-10T09:39:33;4.50;;;3.30;;
40611;SDS011;26317;44.894;20.286;2023-05-10T09:42:07;4.60;;;3.55;;
40611;SDS011;26317;44.894;20.286;2023-05-10T09:44:39;8.10;;;3.47;;
40611;SDS011;26317;44.894;20.286;2023-05-10T09:47:10;5.30;;;3.47;;
40611;SDS011;26317;44.894;20.286;2023-05-10T09:49:49;10.38;;;4.03;;
40611;SDS011;26317;44.894;20.286;2023-05-10T09:52:19;7.60;;;3.88;;
40611;SDS011;26317;44.894;20.286;2023-05-10T09:54:52;5.63;;;3.47;;
40611;SDS011;26317;44.894;20.286;2023-05-10T09:57:26;8.00;;;3.90;;
40611;SDS011;26317;44.894;20.286;2023-05-10T10:00:00;3.65;;;2.88;;
40611;SDS011;26317;44.894;20.286;2023-05-10T10:02:38;4.07;;;2.85;;
40611;SDS011;26317;44.894;20.286;2023-05-10T10:05:09;3.97;;;2.90;;
40611;SDS011;26317;44.894;20.286;2023-05-10T10:07:42;9.88;;;3.15;;
40611;SDS011;26317;44.894;20.286;2023-05-10T10:12:47;8.65;;;3.67;;
40611;SDS011;26317;44.894;20.286;2023-05-10T10:15:18;7.43;;;3.33;;
40611;SDS011;26317;44.894;20.286;2023-05-10T10:17:52;9.00;;;3.10;;
40611;SDS011;26317;44.894;20.286;2023-05-10T10:20:24;7.38;;;3.40;;
40611;SDS011;26317;44.894;20.286;2023-05-10T10:25:25;7.38;;;3.20;;
40611;SDS011;26317;44.894;20.286;2023-05-10T10:28:15;4.22;;;2.88;;
40611;SDS011;26317;44.894;20.286;2023-05-10T10:30:54;5.18;;;2.55;;
40611;SDS011;26317;44.894;20.286;2023-05-10T10:33:33;3.03;;;2.60;;
40611;SDS011;26317;44.894;20.286;2023-05-10T10:36:21;5.55;;;2.88;;
40611;SDS011;26317;44.894;20.286;2023-05-10T10:39:00;5.03;;;2.72;;
40611;SDS011;26317;44.894;20.286;2023-05-10T10:41:32;4.32;;;2.70;;
40611;SDS011;26317;44.894;20.286;2023-05-10T10:46:59;4.72;;;2.38;;
40611;SDS011;26317;44.894;20.286;2023-05-10T10:49:48;5.70;;;2.30;;
40611;SDS011;26317;44.894;20.286;2023-05-10T10:52:21;6.65;;;2.50;;
40611;SDS011;26317;44.894;20.286;2023-05-10T10:55:00;3.03;;;2.38;;
40611;SDS011;26317;44.894;20.286;2023-05-10T10:57:32;4.93;;;2.20;;
40611;SDS011;26317;44.894;20.286;2023-05-10T11:00:28;4.03;;;2.43;;
40611;SDS011;26317;44.894;20.286;2023-05-10T11:03:03;5.82;;;2.50;;
40611;SDS011;26317;44.894;20.286;2023-05-10T11:05:37;4.93;;;2.25;;
40611;SDS011;26317;44.894;20.286;2023-05-10T11:08:19;2.58;;;2.30;;
40611;SDS011;26317;44.894;20.286;2023-05-10T11:11:04;6.28;;;2.75;;
40611;SDS011;26317;44.894;20.286;2023-05-10T11:13:39;5.88;;;2.47;;
40611;SDS011;26317;44.894;20.286;2023-05-10T11:16:16;2.90;;;2.53;;
40611;SDS011;26317;44.894;20.286;2023-05-10T11:18:58;3.30;;;2.35;;
40611;SDS011;26317;44.894;20.286;2023-05-10T11:21:34;7.57;;;3.10;;
40611;SDS011;26317;44.894;20.286;2023-05-10T11:24:16;2.38;;;2.15;;
40611;SDS011;26317;44.894;20.286;2023-05-10T11:26:49;3.83;;;2.58;;
40611;SDS011;26317;44.894;20.286;2023-05-10T11:29:20;4.53;;;2.38;;
40611;SDS011;26317;44.894;20.286;2023-05-10T11:31:56;5.55;;;2.25;;
40611;SDS011;26317;44.894;20.286;2023-05-10T11:34:28;3.10;;;2.75;;
40611;SDS011;26317;44.894;20.286;2023-05-10T11:37:00;5.50;;;2.30;;
40611;SDS011;26317;44.894;20.286;2023-05-10T11:39:31;6.65;;;2.28;;
40611;SDS011;26317;44.894;20.286;2023-05-10T11:44:32;9.10;;;2.53;;
40611;SDS011;26317;44.894;20.286;2023-05-10T11:47:05;4.55;;;2.30;;
40611;SDS011;26317;44.894;20.286;2023-05-10T11:49:35;6.32;;;2.15;;
40611;SDS011;26317;44.894;20.286;2023-05-10T11:52:07;6.18;;;2.33;;
40611;SDS011;26317;44.894;20.286;2023-05-10T11:54:44;9.30;;;3.08;;
40611;SDS011;26317;44.894;20.286;2023-05-10T11:57:15;5.90;;;2.40;;
40611;SDS011;26317;44.894;20.286;2023-05-10T11:59:45;2.83;;;2.38;;
40611;SDS011;26317;44.894;20.286;2023-05-10T12:02:21;6.43;;;2.00;;
40611;SDS011;26317;44.894;20.286;2023-05-10T12:04:51;7.88;;;2.42;;
40611;SDS011;26317;44.894;20.286;2023-05-10T12:07:22;7.25;;;2.28;;
40611;SDS011;26317;44.894;20.286;2023-05-10T12:10:04;8.02;;;2.10;;
40611;SDS011;26317;44.894;20.286;2023-05-10T12:12:39;6.70;;;2.42;;
40611;SDS011;26317;44.894;20.286;2023-05-10T12:15:11;3.65;;;2.15;;
40611;SDS011;26317;44.894;20.286;2023-05-10T12:17:50;2.35;;;1.92;;
40611;SDS011;26317;44.894;20.286;2023-05-10T12:20:22;6.28;;;2.40;;
40611;SDS011;26317;44.894;20.286;2023-05-10T12:22:54;4.80;;;2.20;;
40611;SDS011;26317;44.894;20.286;2023-05-10T12:25:29;6.65;;;1.90;;
40611;SDS011;26317;44.894;20.286;2023-05-10T12:28:03;9.25;;;2.58;;
40611;SDS011;26317;44.894;20.286;2023-05-10T12:30:35;4.80;;;2.10;;
40611;SDS011;26317;44.894;20.286;2023-05-10T12:33:12;6.45;;;2.40;;
40611;SDS011;26317;44.894;20.286;2023-05-10T12:38:24;5.75;;;1.98;;
40611;SDS011;26317;44.894;20.286;2023-05-10T12:41:00;1.83;;;1.70;;
40611;SDS011;26317;44.894;20.286;2023-05-10T12:43:32;3.75;;;1.77;;
40611;SDS011;26317;44.894;20.286;2023-05-10T12:46:04;3.72;;;2.22;;
40611;SDS011;26317;44.894;20.286;2023-05-10T12:48:38;4.72;;;1.60;;
40611;SDS011;26317;44.894;20.286;2023-05-10T12:51:10;3.30;;;2.03;;
40611;SDS011;26317;44.894;20.286;2023-05-10T12:53:43;9.85;;;2.53;;
40611;SDS011;26317;44.894;20.286;2023-05-10T12:56:15;6.78;;;2.45;;
40611;SDS011;26317;44.894;20.286;2023-05-10T12:58:45;4.30;;;2.13;;
40611;SDS011;26317;44.894;20.286;2023-05-10T13:01:16;7.63;;;2.13;;
40611;SDS011;26317;44.894;20.286;2023-05-10T13:03:48;5.50;;;2.20;;
40611;SDS011;26317;44.894;20.286;2023-05-10T13:06:21;3.22;;;2.15;;
40611;SDS011;26317;44.894;20.286;2023-05-10T13:08:51;5.50;;;2.90;;
40611;SDS011;26317;44.894;20.286;2023-05-10T13:11:22;6.38;;;2.58;;
40611;SDS011;26317;44.894;20.286;2023-05-10T13:13:52;9.00;;;2.20;;
40611;SDS011;26317;44.894;20.286;2023-05-10T13:16:22;4.68;;;2.42;;
40611;SDS011;26317;44.894;20.286;2023-05-10T13:21:30;5.70;;;1.65;;
40611;SDS011;26317;44.894;20.286;2023-05-10T13:24:00;3.67;;;2.28;;
40611;SDS011;26317;44.894;20.286;2023-05-10T13:26:32;3.38;;;2.45;;
40611;SDS011;26317;44.894;20.286;2023-05-10T13:29:03;4.55;;;2.05;;
40611;SDS011;26317;44.894;20.286;2023-05-10T13:31:33;3.28;;;2.28;;
40611;SDS011;26317;44.894;20.286;2023-05-10T13:34:07;2.10;;;1.88;;
40611;SDS011;26317;44.894;20.286;2023-05-10T13:36:38;6.05;;;2.50;;
40611;SDS011;26317;44.894;20.286;2023-05-10T13:39:08;5.50;;;2.15;;
40611;SDS011;26317;44.894;20.286;2023-05-10T13:41:39;2.70;;;2.05;;
40611;SDS011;26317;44.894;20.286;2023-05-10T13:44:11;5.82;;;1.95;;
40611;SDS011;26317;44.894;20.286;2023-05-10T13:46:45;11.05;;;2.38;;
40611;SDS011;26317;44.894;20.286;2023-05-10T13:49:18;6.75;;;2.42;;
40611;SDS011;26317;44.894;20.286;2023-05-10T13:51:49;7.53;;;2.22;;
40611;SDS011;26317;44.894;20.286;2023-05-10T13:54:19;5.07;;;1.60;;
40611;SDS011;26317;44.894;20.286;2023-05-10T13:56:50;4.13;;;1.80;;
40611;SDS011;26317;44.894;20.286;2023-05-10T13:59:20;4.25;;;2.30;;
40611;SDS011;26317;44.894;20.286;2023-05-10T14:01:52;5.93;;;2.10;;
40611;SDS011;26317;44.894;20.286;2023-05-10T14:04:27;10.65;;;2.35;;
40611;SDS011;26317;44.894;20.286;2023-05-10T14:07:01;6.03;;;2.08;;
40611;SDS011;26317;44.894;20.286;2023-05-10T14:09:32;2.28;;;1.88;;
40611;SDS011;26317;44.894;20.286;2023-05-10T14:12:03;1.67;;;1.55;;
40611;SDS011;26317;44.894;20.286;2023-05-10T14:14:35;5.22;;;1.98;;
40611;SDS011;26317;44.894;20.286;2023-05-10T14:17:05;2.75;;;1.83;;
40611;SDS011;26317;44.894;20.286;2023-05-10T14:19:40;3.33;;;2.53;;
40611;SDS011;26317;44.894;20.286;2023-05-10T14:22:11;6.93;;;2.40;;
40611;SDS011;26317;44.894;20.286;2023-05-10T14:24:45;3.67;;;2.10;;
40611;SDS011;26317;44.894;20.286;2023-05-10T14:27:16;3.15;;;1.63;;
40611;SDS011;26317;44.894;20.286;2023-05-10T14:29:48;5.57;;;2.38;;
40611;SDS011;26317;44.894;20.286;2023-05-10T14:32:19;5.70;;;1.75;;
40611;SDS011;26317;44.894;20.286;2023-05-10T14:34:53;4.10;;;2.13;;
40611;SDS011;26317;44.894;20.286;2023-05-10T14:37:24;5.50;;;1.92;;
40611;SDS011;26317;44.894;20.286;2023-05-10T14:39:54;2.72;;;1.95;;
40611;SDS011;26317;44.894;20.286;2023-05-10T14:42:25;3.17;;;1.90;;
40611;SDS011;26317;44.894;20.286;2023-05-10T14:44:55;4.30;;;1.70;;
40611;SDS011;26317;44.894;20.286;2023-05-10T14:47:25;2.47;;;2.17;;
40611;SDS011;26317;44.894;20.286;2023-05-10T14:49:58;3.38;;;1.98;;
40611;SDS011;26317;44.894;20.286;2023-05-10T14:52:29;13.13;;;1.88;;
40611;SDS011;26317;44.894;20.286;2023-05-10T14:55:00;3.13;;;1.95;;
40611;SDS011;26317;44.894;20.286;2023-05-10T14:57:30;2.63;;;2.10;;
40611;SDS011;26317;44.894;20.286;2023-05-10T15:00:01;5.30;;;2.30;;
40611;SDS011;26317;44.894;20.286;2023-05-10T15:02:32;6.43;;;2.03;;
40611;SDS011;26317;44.894;20.286;2023-05-10T15:05:07;4.32;;;1.90;;
40611;SDS011;26317;44.894;20.286;2023-05-10T15:07:41;4.93;;;2.03;;
40611;SDS011;26317;44.894;20.286;2023-05-10T15:10:12;7.00;;;2.53;;
40611;SDS011;26317;44.894;20.286;2023-05-10T15:12:42;4.40;;;2.20;;
40611;SDS011;26317;44.894;20.286;2023-05-10T15:15:12;8.95;;;2.65;;
40611;SDS011;26317;44.894;20.286;2023-05-10T15:17:43;4.65;;;2.72;;
40611;SDS011;26317;44.894;20.286;2023-05-10T15:20:16;3.13;;;2.20;;
40611;SDS011;26317;44.894;20.286;2023-05-10T15:22:47;2.72;;;2.05;;
40611;SDS011;26317;44.894;20.286;2023-05-10T15:25:17;2.97;;;2.15;;
40611;SDS011;26317;44.894;20.286;2023-05-10T15:27:50;6.53;;;1.90;;
40611;SDS011;26317;44.894;20.286;2023-05-10T15:30:20;4.03;;;2.00;;